createdAt,value
2022-10-28T00:01:07.968Z,99.90
2022-10-28T00:03:39.667Z,99.90
2022-10-28T00:06:10.018Z,99.90
2022-10-28T00:08:38.708Z,99.90
2022-10-28T00:11:08.220Z,99.90
2022-10-28T00:13:37.930Z,99.90
2022-10-28T00:16:08.370Z,99.90
2022-10-28T00:18:36.769Z,99.90
2022-10-28T00:21:06.460Z,99.90
2022-10-28T00:23:34.779Z,99.90
2022-10-28T00:26:07.731Z,99.90
2022-10-28T00:28:40.718Z,99.90
2022-10-28T00:31:10.268Z,99.90
2022-10-28T00:33:39.315Z,99.90
2022-10-28T00:36:16.117Z,99.90
2022-10-28T00:38:45.657Z,99.90
2022-10-28T00:41:15.967Z,99.90
2022-10-28T00:43:47.809Z,99.90
2022-10-28T00:46:24.627Z,99.90
2022-10-28T00:48:56.512Z,99.90
2022-10-28T00:51:27.237Z,99.90
2022-10-28T00:53:57.109Z,99.90
2022-10-28T00:56:28.744Z,99.90
2022-10-28T00:59:01.545Z,99.90
2022-10-28T01:01:30.277Z,99.90
2022-10-28T01:03:58.932Z,99.90
2022-10-28T01:06:28.624Z,99.90
2022-10-28T01:08:59.915Z,99.90
2022-10-28T01:11:54.332Z,99.90
2022-10-28T01:14:37.940Z,99.90
2022-10-28T01:17:19.909Z,99.90
2022-10-28T01:20:29.615Z,99.90
2022-10-28T01:23:05.281Z,99.90
2022-10-28T01:25:59.005Z,99.90
2022-10-28T01:28:59.206Z,99.90
2022-10-28T01:31:37.324Z,99.90
2022-10-28T01:34:13.488Z,99.90
2022-10-28T01:36:49.772Z,99.90
2022-10-28T01:39:30.713Z,99.90
2022-10-28T01:42:06.860Z,99.90
2022-10-28T01:44:42.392Z,99.90
2022-10-28T01:47:15.367Z,99.90
2022-10-28T01:49:51.129Z,99.90
2022-10-28T01:52:24.273Z,99.90
2022-10-28T01:54:55.708Z,99.90
2022-10-28T01:57:26.002Z,99.90
2022-10-28T01:59:54.586Z,99.90
2022-10-28T02:02:24.114Z,99.90
2022-10-28T02:04:52.062Z,99.90
2022-10-28T02:07:20.353Z,99.90
2022-10-28T02:10:02.207Z,99.90
2022-10-28T02:12:32.710Z,99.90
2022-10-28T02:15:19.474Z,99.90
2022-10-28T02:18:03.145Z,99.90
2022-10-28T02:20:40.434Z,99.90
2022-10-28T02:23:18.599Z,99.90
2022-10-28T02:25:52.411Z,99.90
2022-10-28T02:28:25.949Z,99.90
2022-10-28T02:31:00.225Z,99.90
2022-10-28T02:33:30.371Z,99.90
2022-10-28T02:36:04.270Z,99.90
2022-10-28T02:38:35.913Z,99.90
2022-10-28T02:41:08.586Z,99.90
2022-10-28T02:43:39.253Z,99.90
2022-10-28T02:46:08.982Z,99.90
2022-10-28T02:48:41.759Z,99.90
2022-10-28T02:51:13.616Z,99.90
2022-10-28T02:53:51.657Z,99.90
2022-10-28T02:56:22.219Z,99.90
2022-10-28T02:58:50.628Z,99.90
2022-10-28T03:01:19.127Z,99.90
2022-10-28T03:03:48.596Z,99.90
2022-10-28T03:06:16.781Z,99.90
2022-10-28T03:08:46.102Z,99.90
2022-10-28T03:11:14.051Z,99.90
2022-10-28T03:13:42.284Z,99.90
2022-10-28T03:16:10.455Z,99.90
2022-10-28T03:18:38.488Z,99.90
2022-10-28T03:21:08.105Z,99.90
2022-10-28T03:23:36.127Z,99.90
2022-10-28T03:26:04.282Z,99.90
2022-10-28T03:28:32.451Z,99.90
2022-10-28T03:31:00.415Z,99.90
2022-10-28T03:33:28.515Z,99.90
2022-10-28T03:35:56.612Z,99.90
2022-10-28T03:38:25.979Z,99.90
2022-10-28T03:40:54.130Z,99.90
2022-10-28T03:43:22.254Z,99.90
2022-10-28T03:45:50.234Z,99.90
2022-10-28T03:48:18.329Z,99.90
2022-10-28T03:50:46.440Z,99.90
2022-10-28T03:53:14.451Z,99.90
2022-10-28T03:55:43.863Z,99.90
2022-10-28T03:58:12.035Z,99.90
2022-10-28T04:00:39.994Z,99.90
2022-10-28T04:03:07.950Z,99.90
2022-10-28T04:05:36.122Z,99.90
2022-10-28T04:08:04.179Z,99.90
2022-10-28T04:10:32.251Z,99.90
2022-10-28T04:13:02.940Z,99.90
2022-10-28T04:15:31.084Z,99.90
2022-10-28T04:17:59.239Z,99.90
2022-10-28T04:20:28.053Z,99.90
2022-10-28T04:22:57.262Z,99.90
2022-10-28T04:25:27.175Z,99.90
2022-10-28T04:27:55.836Z,99.90
2022-10-28T04:30:25.727Z,99.90
2022-10-28T04:32:53.750Z,99.90
2022-10-28T04:35:21.796Z,99.90
2022-10-28T04:37:49.990Z,99.90
2022-10-28T04:40:18.158Z,99.90
2022-10-28T04:42:46.112Z,99.90
2022-10-28T04:45:15.761Z,99.90
2022-10-28T04:47:45.223Z,99.90
2022-10-28T04:50:13.338Z,99.90
2022-10-28T04:52:41.552Z,99.90
2022-10-28T04:55:10.261Z,99.90
2022-10-28T04:57:38.329Z,99.90
2022-10-28T05:00:07.738Z,99.90
2022-10-28T05:02:35.767Z,99.90
2022-10-28T05:05:05.541Z,99.90
2022-10-28T05:07:33.717Z,99.90
2022-10-28T05:10:01.727Z,99.90
2022-10-28T05:12:29.772Z,99.90
2022-10-28T05:14:57.747Z,99.90
2022-10-28T05:17:25.809Z,99.90
2022-10-28T05:19:54.081Z,99.90
2022-10-28T05:22:23.742Z,99.90
2022-10-28T05:24:51.761Z,99.90
2022-10-28T05:27:19.733Z,99.90
2022-10-28T05:29:47.971Z,99.90
2022-10-28T05:32:15.971Z,99.90
2022-10-28T05:34:43.965Z,99.90
2022-10-28T05:37:12.602Z,99.90
2022-10-28T05:39:41.930Z,99.90
2022-10-28T05:42:10.185Z,99.90
2022-10-28T05:44:38.196Z,99.90
2022-10-28T05:47:06.210Z,99.90
2022-10-28T05:49:34.380Z,99.90
2022-10-28T05:52:02.526Z,99.90
2022-10-28T05:54:30.473Z,99.90
2022-10-28T05:56:59.996Z,99.90
2022-10-28T05:59:28.008Z,99.90
2022-10-28T06:01:56.067Z,99.90
2022-10-28T06:04:24.408Z,99.90
2022-10-28T06:06:55.838Z,99.90
2022-10-28T06:09:24.023Z,99.90
2022-10-28T06:11:50.463Z,99.90
2022-10-28T06:14:19.961Z,99.90
2022-10-28T06:16:47.932Z,99.90
2022-10-28T06:19:16.405Z,99.90
2022-10-28T06:21:44.386Z,99.90
2022-10-28T06:24:12.550Z,99.90
2022-10-28T06:26:40.576Z,99.90
2022-10-28T06:29:10.724Z,99.90
2022-10-28T06:31:40.735Z,99.90
2022-10-28T06:34:09.220Z,99.90
2022-10-28T06:36:37.393Z,99.90
2022-10-28T06:39:06.053Z,99.90
2022-10-28T06:41:34.287Z,99.90
2022-10-28T06:44:02.668Z,99.90
2022-10-28T06:46:31.024Z,99.90
2022-10-28T06:49:03.202Z,99.90
2022-10-28T06:51:32.058Z,99.90
2022-10-28T06:54:00.481Z,99.90
2022-10-28T06:56:28.518Z,99.90
2022-10-28T06:58:57.057Z,99.90
2022-10-28T07:01:25.157Z,99.90
2022-10-28T07:03:53.519Z,99.90
2022-10-28T07:06:22.888Z,99.90
2022-10-28T07:08:51.075Z,99.90
2022-10-28T07:11:19.216Z,99.90
2022-10-28T07:13:48.940Z,99.90
2022-10-28T07:16:17.226Z,99.90
2022-10-28T07:18:45.413Z,99.90
2022-10-28T07:21:14.344Z,99.90
2022-10-28T07:23:43.719Z,99.90
2022-10-28T07:26:11.782Z,99.90
2022-10-28T07:28:39.850Z,99.90
2022-10-28T07:31:07.902Z,99.90
2022-10-28T07:33:36.060Z,99.90
2022-10-28T07:36:05.067Z,99.90
2022-10-28T07:38:33.493Z,99.90
2022-10-28T07:41:06.908Z,99.90
2022-10-28T07:43:37.180Z,99.90
2022-10-28T07:46:06.039Z,99.90
2022-10-28T07:48:36.758Z,99.90
2022-10-28T07:51:06.683Z,99.90
2022-10-28T07:53:35.070Z,99.90
2022-10-28T07:56:09.758Z,99.90
2022-10-28T07:58:38.122Z,99.90
2022-10-28T08:01:08.038Z,99.90
2022-10-28T08:03:39.068Z,99.90
2022-10-28T08:06:09.735Z,99.90
2022-10-28T08:08:38.092Z,99.90
2022-10-28T08:11:19.325Z,99.90
2022-10-28T08:13:48.058Z,99.90
2022-10-28T08:16:16.130Z,99.90
2022-10-28T08:18:45.780Z,99.90
2022-10-28T08:21:15.087Z,99.90
2022-10-28T08:23:46.523Z,99.90
2022-10-28T08:26:17.309Z,99.90
2022-10-28T08:28:45.341Z,99.90
2022-10-28T08:31:13.549Z,99.90
2022-10-28T08:33:44.335Z,99.90
2022-10-28T08:36:14.374Z,99.90
2022-10-28T08:38:45.783Z,99.90
2022-10-28T08:41:25.673Z,99.90
2022-10-28T08:44:06.198Z,99.90
2022-10-28T08:46:54.003Z,99.90
2022-10-28T08:49:24.702Z,99.90
2022-10-28T08:51:57.128Z,98.60
2022-10-28T08:54:31.362Z,98.60
2022-10-28T08:57:04.016Z,99.70
2022-10-28T08:59:36.484Z,97.80
2022-10-28T09:02:15.202Z,94.40
2022-10-28T09:04:45.420Z,94.00
2022-10-28T09:07:18.395Z,90.00
2022-10-28T09:09:47.139Z,84.30
2022-10-28T09:12:28.787Z,84.10
2022-10-28T09:15:14.919Z,80.60
2022-10-28T09:17:52.877Z,80.10
2022-10-28T09:20:26.975Z,74.50
2022-10-28T09:22:57.892Z,69.50
2022-10-28T09:25:34.391Z,67.50
2022-10-28T09:28:16.524Z,65.70
2022-10-28T09:30:54.674Z,61.60
2022-10-28T09:33:44.045Z,56.00
2022-10-28T09:36:16.912Z,51.80
2022-10-28T09:38:45.960Z,51.20
2022-10-28T09:41:19.355Z,48.90
2022-10-28T09:43:53.857Z,47.90
2022-10-28T09:46:24.011Z,47.60
2022-10-28T09:48:56.116Z,47.00
2022-10-28T09:51:32.245Z,47.10
2022-10-28T09:54:01.985Z,47.00
2022-10-28T09:56:31.440Z,45.00
2022-10-28T09:59:03.620Z,44.20
2022-10-28T10:01:34.643Z,42.10
2022-10-28T10:04:03.584Z,41.20
2022-10-28T10:06:36.245Z,39.90
2022-10-28T10:09:04.987Z,37.40
2022-10-28T10:11:39.785Z,35.80
2022-10-28T10:14:12.949Z,36.80
2022-10-28T10:16:45.925Z,36.00
2022-10-28T10:19:14.072Z,33.70
2022-10-28T10:21:45.149Z,33.10
2022-10-28T10:24:36.208Z,32.30
2022-10-28T10:27:15.289Z,32.40
2022-10-28T10:29:48.495Z,33.40
2022-10-28T10:32:17.696Z,33.70
2022-10-28T10:34:51.256Z,32.70
2022-10-28T10:37:21.663Z,33.40
2022-10-28T10:40:03.507Z,32.30
2022-10-28T10:42:31.546Z,31.70
2022-10-28T10:45:04.371Z,32.40
2022-10-28T10:47:32.428Z,33.50
2022-10-28T10:50:24.116Z,33.80
2022-10-28T10:52:58.110Z,34.70
2022-10-28T10:55:35.516Z,35.20
2022-10-28T10:58:04.776Z,35.90
2022-10-28T11:00:37.831Z,36.30
2022-10-28T11:03:08.381Z,36.70
2022-10-28T11:05:38.486Z,36.10
2022-10-28T11:08:07.777Z,36.10
2022-10-28T11:10:36.272Z,36.00
2022-10-28T11:13:07.104Z,35.20
2022-10-28T11:15:36.511Z,35.20
2022-10-28T11:18:20.592Z,35.50
2022-10-28T11:20:56.061Z,35.50
2022-10-28T11:23:44.504Z,35.70
2022-10-28T11:26:14.905Z,36.00
2022-10-28T11:28:58.813Z,36.20
2022-10-28T11:31:50.226Z,36.10
2022-10-28T11:34:31.316Z,35.90
2022-10-28T11:37:09.935Z,35.60
2022-10-28T11:39:47.838Z,34.60
2022-10-28T11:42:27.380Z,33.30
2022-10-28T11:45:00.483Z,32.60
2022-10-28T11:47:50.593Z,32.80
2022-10-28T11:50:36.463Z,32.40
2022-10-28T11:53:25.394Z,31.40
2022-10-28T11:56:04.090Z,30.20
2022-10-28T11:58:41.061Z,29.90
2022-10-28T12:01:18.128Z,29.60
2022-10-28T12:04:17.398Z,29.70
2022-10-28T12:07:10.809Z,29.80
2022-10-28T12:09:53.094Z,30.00
2022-10-28T12:12:30.199Z,30.40
2022-10-28T12:15:05.051Z,30.50
2022-10-28T12:17:39.033Z,30.10
2022-10-28T12:20:18.045Z,31.30
2022-10-28T12:22:50.099Z,32.20
2022-10-28T12:25:23.902Z,32.60
2022-10-28T12:27:56.482Z,33.20
2022-10-28T12:30:28.290Z,34.30
2022-10-28T12:33:00.124Z,35.90
2022-10-28T12:35:33.773Z,37.50
2022-10-28T12:38:08.252Z,38.40
2022-10-28T12:40:42.661Z,40.40
2022-10-28T12:43:17.287Z,42.50
2022-10-28T12:45:49.294Z,43.90
2022-10-28T12:48:23.370Z,45.40
2022-10-28T12:50:53.981Z,46.70
2022-10-28T12:53:31.925Z,47.30
2022-10-28T12:56:01.870Z,48.60
2022-10-28T12:58:34.108Z,48.80
2022-10-28T13:01:05.249Z,50.60
2022-10-28T13:03:33.460Z,51.40
2022-10-28T13:06:26.732Z,52.70
2022-10-28T13:09:24.426Z,53.00
2022-10-28T13:12:21.830Z,54.40
2022-10-28T13:15:16.833Z,54.30
2022-10-28T13:17:54.066Z,55.00
2022-10-28T13:20:31.049Z,56.60
2022-10-28T13:23:12.381Z,56.90
2022-10-28T13:26:00.474Z,58.10
2022-10-28T13:28:32.576Z,57.40
2022-10-28T13:31:03.288Z,58.60
2022-10-28T13:33:34.236Z,59.90
2022-10-28T13:36:12.833Z,60.70
2022-10-28T13:38:42.491Z,61.00
2022-10-28T13:41:26.975Z,62.50
2022-10-28T13:44:15.010Z,63.10
2022-10-28T13:47:19.550Z,63.80
2022-10-28T13:50:20.084Z,65.50
2022-10-28T13:53:08.746Z,67.20
2022-10-28T13:55:46.042Z,68.20
2022-10-28T13:58:23.475Z,70.20
2022-10-28T14:00:53.561Z,70.90
2022-10-28T14:03:25.310Z,71.40
2022-10-28T14:05:59.070Z,72.40
2022-10-28T14:08:30.990Z,73.10
2022-10-28T14:11:08.492Z,74.40
2022-10-28T14:13:39.798Z,74.90
2022-10-28T14:16:25.331Z,75.80
2022-10-28T14:18:57.418Z,76.40
2022-10-28T14:21:25.725Z,77.80
2022-10-28T14:24:11.041Z,78.70
2022-10-28T14:27:12.617Z,79.00
2022-10-28T14:29:47.505Z,79.70
2022-10-28T14:32:41.136Z,81.50
2022-10-28T14:35:26.709Z,81.60
2022-10-28T14:38:39.717Z,83.00
2022-10-28T14:41:26.395Z,83.30
2022-10-28T14:44:11.483Z,84.50
2022-10-28T14:46:57.657Z,84.30
2022-10-28T14:49:28.469Z,85.30
2022-10-28T14:51:58.224Z,87.20
2022-10-28T14:54:39.688Z,87.70
2022-10-28T14:57:09.554Z,89.30
2022-10-28T14:59:39.203Z,89.10
2022-10-28T15:02:14.755Z,89.70
2022-10-28T15:04:44.913Z,90.60
2022-10-28T15:07:15.987Z,90.80
2022-10-28T15:09:45.390Z,91.10
2022-10-28T15:12:15.558Z,91.50
2022-10-28T15:14:47.353Z,91.40
2022-10-28T15:17:19.280Z,92.60
2022-10-28T15:19:48.797Z,93.20
2022-10-28T15:22:20.166Z,93.50
2022-10-28T15:24:59.460Z,94.00
2022-10-28T15:27:29.859Z,94.60
2022-10-28T15:29:58.194Z,95.30
2022-10-28T15:32:33.047Z,95.80
2022-10-28T15:35:21.303Z,96.30
2022-10-28T15:37:49.446Z,96.70
2022-10-28T15:40:22.974Z,97.10
2022-10-28T15:42:54.755Z,97.10
2022-10-28T15:45:27.364Z,98.00
2022-10-28T15:47:58.178Z,98.50
2022-10-28T15:50:34.466Z,99.00
2022-10-28T15:53:22.274Z,99.50
2022-10-28T15:56:10.289Z,99.20
2022-10-28T15:58:40.596Z,99.90
2022-10-28T16:01:11.513Z,99.90
2022-10-28T16:03:46.149Z,99.90
2022-10-28T16:06:24.488Z,99.90
2022-10-28T16:09:07.632Z,99.90
2022-10-28T16:11:39.333Z,99.90
2022-10-28T16:14:24.674Z,99.90
2022-10-28T16:16:52.914Z,99.90
2022-10-28T16:19:29.120Z,99.90
2022-10-28T16:21:57.489Z,99.90
2022-10-28T16:24:44.172Z,99.90
2022-10-28T16:27:20.807Z,99.90
2022-10-28T16:29:49.431Z,99.90
2022-10-28T16:32:19.113Z,99.90
2022-10-28T16:34:48.637Z,99.90
2022-10-28T16:37:22.930Z,99.90
2022-10-28T16:39:50.996Z,99.90
2022-10-28T16:42:20.288Z,99.90
2022-10-28T16:44:48.540Z,99.90
2022-10-28T16:47:18.839Z,99.90
2022-10-28T16:49:54.056Z,99.90
2022-10-28T16:52:28.000Z,99.90
2022-10-28T16:54:56.396Z,99.90
2022-10-28T16:57:25.167Z,99.90
2022-10-28T16:59:53.566Z,99.90
2022-10-28T17:02:26.222Z,99.90
2022-10-28T17:04:56.121Z,99.90
2022-10-28T17:07:24.477Z,99.90
2022-10-28T17:09:52.982Z,99.90
2022-10-28T17:15:58.172Z,99.90
2022-10-28T17:18:26.310Z,99.90
2022-10-28T17:21:01.867Z,99.90
2022-10-28T17:23:30.584Z,99.90
2022-10-28T17:25:59.197Z,99.90
2022-10-28T17:28:27.285Z,99.90
2022-10-28T17:31:02.225Z,99.90
2022-10-28T17:33:30.338Z,99.90
2022-10-28T17:36:03.202Z,99.90
2022-10-28T17:38:31.750Z,99.90
2022-10-28T17:40:59.739Z,99.90
2022-10-28T17:43:28.645Z,99.90
2022-10-28T17:46:04.570Z,99.90
2022-10-28T17:48:32.686Z,99.90
2022-10-28T17:51:02.044Z,99.90
2022-10-28T17:53:30.484Z,99.90
2022-10-28T17:55:59.067Z,99.90
2022-10-28T17:58:27.467Z,99.90
2022-10-28T18:00:59.785Z,99.90
2022-10-28T18:03:32.746Z,99.90
2022-10-28T18:06:07.090Z,99.90
2022-10-28T18:09:04.834Z,99.90
2022-10-28T18:11:35.368Z,99.90
2022-10-28T18:14:05.512Z,99.90
2022-10-28T18:17:09.327Z,99.90
2022-10-28T18:19:37.394Z,99.90
2022-10-28T18:22:06.970Z,99.90
2022-10-28T18:24:35.079Z,99.90
2022-10-28T18:27:03.157Z,99.90
2022-10-28T18:29:31.148Z,99.90
2022-10-28T18:32:00.658Z,99.90
2022-10-28T18:34:28.849Z,99.90
2022-10-28T18:36:56.874Z,99.90
2022-10-28T18:39:26.575Z,99.90
2022-10-28T18:41:54.635Z,99.90
2022-10-28T18:44:27.109Z,99.90
2022-10-28T18:46:55.161Z,99.90
2022-10-28T18:49:23.399Z,99.90
2022-10-28T18:51:51.521Z,99.90
2022-10-28T18:54:19.595Z,99.90
2022-10-28T18:56:50.532Z,99.90
2022-10-28T18:59:20.591Z,99.90
2022-10-28T19:01:48.654Z,99.90
2022-10-28T19:04:16.743Z,99.90
2022-10-28T19:06:44.915Z,99.90
2022-10-28T19:09:12.946Z,99.90
2022-10-28T19:11:41.020Z,99.90
2022-10-28T19:14:11.140Z,99.90
2022-10-28T19:16:39.218Z,99.90
2022-10-28T19:19:07.302Z,99.90
2022-10-28T19:21:35.787Z,99.90
2022-10-28T19:24:05.247Z,99.90
2022-10-28T19:26:34.819Z,99.90
2022-10-28T19:29:04.678Z,99.90
2022-10-28T19:31:36.868Z,99.90
2022-10-28T19:34:05.756Z,99.90
2022-10-28T19:36:33.792Z,99.90
2022-10-28T19:39:02.003Z,99.90
2022-10-28T19:41:30.956Z,99.90
2022-10-28T19:44:00.426Z,99.90
2022-10-28T19:46:29.736Z,99.90
2022-10-28T19:49:00.569Z,99.90
2022-10-28T19:51:30.306Z,99.90
2022-10-28T19:54:00.113Z,99.90
2022-10-28T19:56:29.700Z,99.90
2022-10-28T19:58:59.426Z,99.90
2022-10-28T20:01:31.262Z,99.90
2022-10-28T20:04:00.881Z,99.90
2022-10-28T20:06:32.822Z,99.90
2022-10-28T20:09:00.965Z,99.90
2022-10-28T20:11:31.663Z,99.90
2022-10-28T20:14:01.941Z,99.90
2022-10-28T20:16:30.749Z,99.90
2022-10-28T20:19:00.719Z,99.90
2022-10-28T20:21:30.062Z,99.90
2022-10-28T20:23:59.215Z,99.90
2022-10-28T20:26:29.157Z,99.90
2022-10-28T20:28:57.951Z,99.90
2022-10-28T20:31:27.396Z,99.90
2022-10-28T20:33:57.947Z,99.90
2022-10-28T20:36:29.842Z,99.90
2022-10-28T20:38:59.500Z,99.90
2022-10-28T20:41:29.821Z,99.90
2022-10-28T20:43:58.649Z,99.90
2022-10-28T20:46:27.805Z,99.90
2022-10-28T20:48:56.771Z,99.90
2022-10-28T20:51:27.610Z,99.90
2022-10-28T20:53:56.276Z,99.90
2022-10-28T20:56:26.630Z,99.90
2022-10-28T20:58:55.770Z,99.90
2022-10-28T21:01:26.115Z,99.90
2022-10-28T21:03:55.737Z,99.90
2022-10-28T21:06:24.353Z,99.90
2022-10-28T21:08:54.605Z,99.90
2022-10-28T21:11:23.659Z,99.90
2022-10-28T21:13:52.952Z,99.90
2022-10-28T21:16:22.205Z,99.90
2022-10-28T21:18:50.790Z,99.90
2022-10-28T21:21:20.143Z,99.90
2022-10-28T21:23:48.136Z,99.90
2022-10-28T21:26:17.475Z,99.90
2022-10-28T21:28:49.330Z,99.90
2022-10-28T21:31:18.105Z,99.90
2022-10-28T21:33:46.329Z,99.90
2022-10-28T21:36:15.902Z,99.90
2022-10-28T21:38:44.379Z,99.90
2022-10-28T21:41:13.964Z,99.90
2022-10-28T21:43:45.357Z,99.90
2022-10-28T21:46:13.433Z,99.90
2022-10-28T21:48:41.570Z,99.90
2022-10-28T21:51:14.716Z,99.90
2022-10-28T21:53:44.531Z,99.90
2022-10-28T21:56:17.036Z,99.90
2022-10-28T21:58:48.161Z,99.90
2022-10-28T22:01:18.455Z,99.90
2022-10-28T22:03:46.707Z,99.90
2022-10-28T22:06:15.134Z,99.90
2022-10-28T22:08:43.391Z,99.90
2022-10-28T22:11:14.257Z,99.90
2022-10-28T22:13:42.426Z,99.90
2022-10-28T22:16:14.212Z,99.90
2022-10-28T22:18:42.721Z,99.90
2022-10-28T22:21:13.316Z,99.90
2022-10-28T22:23:41.930Z,99.90
2022-10-28T22:26:11.858Z,99.90
2022-10-28T22:28:40.497Z,99.90
2022-10-28T22:31:11.239Z,99.90
2022-10-28T22:33:41.419Z,99.90
2022-10-28T22:36:11.865Z,99.90
2022-10-28T22:38:40.509Z,99.90
2022-10-28T22:41:12.555Z,99.90
2022-10-28T22:43:41.530Z,99.90
2022-10-28T22:46:10.815Z,99.90
2022-10-28T22:48:41.253Z,99.90
2022-10-28T22:51:10.411Z,99.90
2022-10-28T22:53:39.423Z,99.90
2022-10-28T22:56:09.346Z,99.90
2022-10-28T22:58:38.007Z,99.90
2022-10-28T23:01:07.431Z,99.90
2022-10-28T23:03:41.559Z,99.90
2022-10-28T23:06:10.516Z,99.90
2022-10-28T23:08:38.872Z,99.90
2022-10-28T23:11:07.956Z,99.90
2022-10-28T23:16:07.023Z,99.90
2022-10-28T23:18:35.440Z,99.90
2022-10-28T23:21:10.542Z,99.90
2022-10-28T23:23:39.268Z,99.90
2022-10-28T23:26:08.050Z,99.90
2022-10-28T23:28:36.067Z,99.90
2022-10-28T23:31:06.019Z,99.90
2022-10-28T23:33:35.712Z,99.90
2022-10-28T23:36:05.134Z,99.90
2022-10-28T23:38:34.935Z,99.90
2022-10-28T23:41:04.379Z,99.90
2022-10-28T23:43:33.501Z,99.90
2022-10-28T23:46:02.545Z,99.90
2022-10-28T23:48:30.969Z,99.90
2022-10-28T23:50:59.292Z,99.90
2022-10-28T23:55:58.297Z,99.90
2022-10-28T23:58:26.402Z,99.90
